Terminal Aerodrome Forecast
Issued by NWS

Home | Current Version | Previous Version | Text Only | Print | Product List | Glossary On
Versions: 1 2 3 4 5 6 7 8 9 10 11 12 13 14 15 16
000
FTUS41 KLWX 262133 AAA
TAFMTN
TAF AMD
KMTN 262133Z 2622/2718 16010KT P6SM OVC035
     FM270300 19011KT P6SM -SHRA BKN030 OVC035
     FM270600 21009KT P6SM -SHRA BKN020 OVC025
     FM270900 27007KT 6SM BR BKN010 OVC050
     FM271100 30006KT 6SM BR BKN035 BKN070
     FM271700 VRB03KT 6SM BR FEW100 SCT250=

USA.gov is the U.S. government's official web portal to all federal, state and local government web resources and services.